Time;durP1;ratioP1;P1;durP2;ratioP2;P2;SDS_P1;SDS_P2;PMS_P1;PMS_P2;Temp;Humidity;BMP_temperature;BMP_pressure;BME280_temperature;BME280_humidity;BME280_pressure;Samples;Min_cycle;Max_cycle;Signal;HPM_P1;HPM_P2
2023/01/15 00:01:37;;;;;;;17.57;13.97;;;;;;;;;;4375267;32;317543;-89
2023/01/15 00:04:06;;;;;;;20.97;14.60;;;;;;;;;;4364106;32;317701;-89
2023/01/15 00:06:37;;;;;;;21.20;14.37;;;;;;;;;;4373326;32;317555;-90
2023/01/15 00:09:04;;;;;;;21.87;13.13;;;;;;;;;;4350286;32;317571;-89
2023/01/15 00:11:32;;;;;;;22.37;13.20;;;;;;;;;;4375914;32;317768;-90
2023/01/15 00:14:00;;;;;;;18.07;12.37;;;;;;;;;;4367658;32;317615;-89
2023/01/15 00:16:29;;;;;;;16.37;11.97;;;;;;;;;;4379739;32;317524;-89
2023/01/15 00:19:03;;;;;;;19.97;13.40;;;;;;;;;;4373681;32;317684;-90
2023/01/15 00:21:30;;;;;;;21.10;13.20;;;;;;;;;;4360322;32;417252;-89
2023/01/15 00:29:26;;;;;;;18.70;11.97;;;;;;;;;;4363525;32;388906;-89
2023/01/15 00:31:57;;;;;;;16.87;11.67;;;;;;;;;;4372676;32;317298;-89
2023/01/15 00:34:26;;;;;;;13.57;10.43;;;;;;;;;;4364736;32;317824;-89
2023/01/15 00:36:53;;;;;;;17.57;11.60;;;;;;;;;;4374274;32;317623;-89
2023/01/15 00:39:20;;;;;;;13.60;9.77;;;;;;;;;;4363732;32;317662;-89
2023/01/15 00:41:47;;;;;;;13.03;9.67;;;;;;;;;;4373340;32;316828;-89
2023/01/15 00:44:14;;;;;;;15.70;10.07;;;;;;;;;;4360884;32;316493;-89
2023/01/15 00:46:41;;;;;;;16.90;10.10;;;;;;;;;;4371448;32;317273;-90
2023/01/15 00:49:08;;;;;;;12.70;9.23;;;;;;;;;;4362463;32;317757;-89
2023/01/15 00:51:41;;;;;;;15.30;9.60;;;;;;;;;;4376094;32;316517;-89
2023/01/15 00:54:08;;;;;;;15.10;10.27;;;;;;;;;;4367988;32;316530;-90
2023/01/15 00:56:35;;;;;;;12.10;9.60;;;;;;;;;;4387897;32;316373;-89
2023/01/15 00:59:03;;;;;;;14.73;9.43;;;;;;;;;;4367918;32;316366;-89
2023/01/15 01:01:30;;;;;;;16.37;11.07;;;;;;;;;;4375529;32;316645;-89
2023/01/15 01:03:57;;;;;;;16.87;9.97;;;;;;;;;;4373651;32;317267;-90
2023/01/15 01:06:25;;;;;;;15.77;10.63;;;;;;;;;;4352132;32;329206;-90
2023/01/15 01:08:54;;;;;;;17.07;11.50;;;;;;;;;;4375638;32;335867;-90
2023/01/15 01:11:25;;;;;;;16.77;11.07;;;;;;;;;;4365925;32;317473;-90
2023/01/15 01:13:53;;;;;;;16.50;11.23;;;;;;;;;;4378512;32;317671;-89
2023/01/15 01:16:32;;;;;;;17.27;11.93;;;;;;;;;;4362960;32;317265;-90
2023/01/15 01:19:00;;;;;;;19.60;11.13;;;;;;;;;;4373022;32;317649;-89
2023/01/15 01:21:29;;;;;;;17.80;11.43;;;;;;;;;;4358518;32;417363;-89
2023/01/15 01:23:59;;;;;;;18.53;11.47;;;;;;;;;;4377065;32;317485;-89
2023/01/15 01:26:26;;;;;;;13.40;9.90;;;;;;;;;;4355385;32;317604;-89
2023/01/15 01:28:54;;;;;;;18.93;10.73;;;;;;;;;;4372656;32;316613;-89
2023/01/15 01:31:21;;;;;;;13.07;9.43;;;;;;;;;;4364041;32;317548;-89
2023/01/15 01:33:49;;;;;;;14.57;9.57;;;;;;;;;;4372418;32;316489;-90
2023/01/15 01:36:16;;;;;;;15.97;10.47;;;;;;;;;;4367712;32;316444;-89
2023/01/15 01:38:43;;;;;;;17.57;11.00;;;;;;;;;;4372520;32;317626;-89
2023/01/15 01:41:12;;;;;;;16.47;10.67;;;;;;;;;;4361719;32;317629;-89
2023/01/15 01:43:54;;;;;;;21.97;11.60;;;;;;;;;;4375374;32;317638;-89
2023/01/15 01:46:21;;;;;;;20.17;12.30;;;;;;;;;;4362606;32;317423;-90
2023/01/15 01:48:50;;;;;;;19.90;12.87;;;;;;;;;;4375846;32;317375;-89
2023/01/15 01:51:22;;;;;;;28.40;19.10;;;;;;;;;;4362529;32;317837;-89
2023/01/15 01:53:49;;;;;;;44.63;26.13;;;;;;;;;;4365350;32;338275;-89
2023/01/15 01:56:19;;;;;;;46.17;26.00;;;;;;;;;;4338116;32;317459;-89
2023/01/15 01:58:52;;;;;;;45.33;24.43;;;;;;;;;;4373415;32;317764;-89
2023/01/15 02:01:20;;;;;;;43.17;24.73;;;;;;;;;;4359858;32;321704;-89
2023/01/15 02:03:47;;;;;;;48.37;26.87;;;;;;;;;;4371772;32;317543;-89
2023/01/15 02:06:15;;;;;;;52.97;30.33;;;;;;;;;;4362843;32;317419;-89
2023/01/15 02:08:43;;;;;;;49.10;28.70;;;;;;;;;;4373112;32;317474;-89
2023/01/15 02:11:16;;;;;;;45.50;28.30;;;;;;;;;;4360830;32;334678;-89
2023/01/15 02:13:54;;;;;;;43.13;26.83;;;;;;;;;;4377094;32;317286;-89
2023/01/15 02:16:24;;;;;;;43.37;25.67;;;;;;;;;;4372980;32;317526;-89
2023/01/15 02:18:58;;;;;;;37.90;23.70;;;;;;;;;;4384721;32;316247;-89
2023/01/15 02:21:35;;;;;;;43.00;24.50;;;;;;;;;;4362376;32;417295;-88
2023/01/15 02:24:22;;;;;;;35.13;23.07;;;;;;;;;;4359909;32;317675;-90
2023/01/15 02:27:17;;;;;;;35.70;21.80;;;;;;;;;;4373409;32;317400;-89
2023/01/15 02:29:55;;;;;;;43.00;25.33;;;;;;;;;;4359279;32;417755;-90
2023/01/15 02:32:34;;;;;;;32.83;19.07;;;;;;;;;;4362090;32;323537;-89
2023/01/15 02:35:07;;;;;;;31.30;19.07;;;;;;;;;;4357324;32;317449;-89
2023/01/15 02:37:42;;;;;;;28.00;17.07;;;;;;;;;;4370980;32;317788;-89
2023/01/15 02:40:12;;;;;;;33.03;17.53;;;;;;;;;;4360931;32;317638;-89
2023/01/15 02:42:42;;;;;;;32.57;17.60;;;;;;;;;;4392181;32;317470;-89
2023/01/15 02:45:11;;;;;;;25.30;16.70;;;;;;;;;;4377782;32;316152;-89
2023/01/15 02:47:44;;;;;;;33.23;17.23;;;;;;;;;;4387176;32;342263;-87
2023/01/15 02:50:15;;;;;;;29.73;18.90;;;;;;;;;;4376966;32;316075;-88
2023/01/15 02:52:45;;;;;;;33.63;19.37;;;;;;;;;;4374943;32;317545;-89
2023/01/15 02:55:16;;;;;;;30.00;17.97;;;;;;;;;;4364776;32;317229;-89
2023/01/15 02:57:49;;;;;;;26.93;16.67;;;;;;;;;;4385399;32;317416;-89
2023/01/15 03:00:19;;;;;;;27.10;16.00;;;;;;;;;;4376399;32;317178;-89
2023/01/15 03:02:51;;;;;;;25.53;16.10;;;;;;;;;;4389601;32;316608;-89
2023/01/15 03:05:28;;;;;;;29.70;19.23;;;;;;;;;;4376900;32;317503;-88
2023/01/15 03:07:57;;;;;;;37.83;23.90;;;;;;;;;;4389428;32;316171;-88
2023/01/15 03:10:34;;;;;;;26.97;17.57;;;;;;;;;;4379749;32;316531;-89
2023/01/15 03:13:03;;;;;;;24.90;17.10;;;;;;;;;;4376725;32;324629;-90
2023/01/15 03:18:31;;;;;;;22.90;14.63;;;;;;;;;;4378012;32;388660;-89
2023/01/15 03:21:04;;;;;;;22.53;14.67;;;;;;;;;;4395432;32;316078;-89
2023/01/15 03:23:31;;;;;;;17.83;12.33;;;;;;;;;;4380196;32;416874;-89
2023/01/15 03:26:01;;;;;;;19.97;13.17;;;;;;;;;;4391628;32;316264;-89
2023/01/15 03:28:33;;;;;;;20.13;12.10;;;;;;;;;;4366485;32;415598;-90
2023/01/15 03:31:00;;;;;;;14.20;10.73;;;;;;;;;;4382944;32;316166;-90
2023/01/15 03:33:30;;;;;;;17.27;11.27;;;;;;;;;;4391864;32;316094;-90
2023/01/15 03:36:00;;;;;;;15.90;10.13;;;;;;;;;;4392235;32;316247;-88
2023/01/15 03:38:30;;;;;;;16.63;10.93;;;;;;;;;;4379890;32;416225;-88
2023/01/15 03:41:06;;;;;;;16.70;11.33;;;;;;;;;;4391428;32;355282;-88
2023/01/15 03:43:46;;;;;;;26.60;15.93;;;;;;;;;;4378735;32;415248;-88
2023/01/15 03:46:28;;;;;;;27.07;16.07;;;;;;;;;;4382248;32;316079;-88
2023/01/15 03:49:02;;;;;;;22.57;14.90;;;;;;;;;;4392211;32;316074;-88
2023/01/15 03:51:38;;;;;;;19.07;13.20;;;;;;;;;;4377754;32;388826;-88
2023/01/15 03:54:09;;;;;;;19.53;12.87;;;;;;;;;;4381715;32;316121;-88
2023/01/15 03:56:41;;;;;;;25.30;14.13;;;;;;;;;;4390656;32;316389;-88
2023/01/15 03:59:16;;;;;;;27.57;15.50;;;;;;;;;;4374143;32;316214;-88
2023/01/15 04:01:45;;;;;;;31.10;17.00;;;;;;;;;;4401259;32;322397;-87
2023/01/15 04:04:16;;;;;;;30.10;18.00;;;;;;;;;;4374339;32;316928;-88
2023/01/15 04:06:46;;;;;;;41.77;22.53;;;;;;;;;;4390587;32;316173;-88
2023/01/15 04:09:14;;;;;;;50.93;30.57;;;;;;;;;;4381353;32;316137;-88
2023/01/15 04:11:41;;;;;;;47.33;29.03;;;;;;;;;;4396508;32;316216;-87
2023/01/15 04:14:15;;;;;;;34.47;22.97;;;;;;;;;;4381491;32;316158;-88
2023/01/15 04:16:43;;;;;;;39.90;23.67;;;;;;;;;;4391550;32;316150;-88
2023/01/15 04:19:12;;;;;;;33.33;21.23;;;;;;;;;;4364060;32;328412;-88
2023/01/15 04:21:40;;;;;;;37.03;23.07;;;;;;;;;;4385054;32;317533;-88
2023/01/15 04:24:07;;;;;;;29.03;19.67;;;;;;;;;;4373812;32;317337;-88
2023/01/15 04:26:34;;;;;;;35.53;23.07;;;;;;;;;;4390464;32;316123;-88
2023/01/15 04:29:01;;;;;;;60.23;36.63;;;;;;;;;;4379775;32;317390;-88
2023/01/15 04:31:33;;;;;;;41.67;24.83;;;;;;;;;;4389654;32;316262;-88
2023/01/15 04:34:00;;;;;;;39.20;23.03;;;;;;;;;;4381419;32;316056;-88
2023/01/15 04:36:28;;;;;;;39.77;26.23;;;;;;;;;;4378732;32;316273;-88
2023/01/15 04:38:56;;;;;;;46.20;26.23;;;;;;;;;;4391737;32;316125;-89
2023/01/15 04:44:09;;;;;;;38.07;23.40;;;;;;;;;;4366878;32;317291;-89
2023/01/15 04:46:41;;;;;;;44.00;26.87;;;;;;;;;;4377477;32;317241;-88
2023/01/15 04:49:09;;;;;;;75.57;41.73;;;;;;;;;;4367081;32;317648;-88
2023/01/15 04:51:38;;;;;;;75.70;41.17;;;;;;;;;;4376145;32;317535;-89
2023/01/15 04:54:06;;;;;;;72.60;41.37;;;;;;;;;;4365853;32;317504;-89
2023/01/15 04:56:38;;;;;;;56.17;35.00;;;;;;;;;;4375328;32;317522;-88
2023/01/15 04:59:05;;;;;;;62.43;39.83;;;;;;;;;;4363174;32;356487;-88
2023/01/15 05:01:32;;;;;;;62.37;37.97;;;;;;;;;;4377093;32;317432;-88
2023/01/15 05:04:01;;;;;;;59.50;34.57;;;;;;;;;;4376123;32;317695;-88
2023/01/15 05:06:30;;;;;;;62.27;37.03;;;;;;;;;;4361844;32;416930;-90
2023/01/15 05:08:56;;;;;;;73.07;45.33;;;;;;;;;;4377191;32;317362;-88
2023/01/15 05:11:23;;;;;;;89.43;50.87;;;;;;;;;;4366482;32;317391;-88
2023/01/15 05:13:50;;;;;;;101.87;62.27;;;;;;;;;;4379323;32;317535;-92
2023/01/15 05:16:19;;;;;;;127.87;71.97;;;;;;;;;;4367207;32;318438;-88
2023/01/15 05:18:47;;;;;;;134.23;81.10;;;;;;;;;;4374817;32;318190;-88
2023/01/15 05:21:19;;;;;;;100.00;62.13;;;;;;;;;;4364494;32;318513;-89
2023/01/15 05:23:46;;;;;;;82.93;53.33;;;;;;;;;;4374107;32;318389;-88
2023/01/15 05:26:13;;;;;;;87.00;52.93;;;;;;;;;;4356673;32;317560;-88
2023/01/15 05:28:41;;;;;;;85.73;54.83;;;;;;;;;;4384164;32;317490;-88
2023/01/15 05:31:08;;;;;;;78.53;49.57;;;;;;;;;;4363014;32;317488;-88
2023/01/15 05:33:36;;;;;;;64.90;43.33;;;;;;;;;;4377709;32;317572;-88
2023/01/15 05:36:05;;;;;;;60.87;36.77;;;;;;;;;;4365078;32;317689;-88
2023/01/15 05:38:35;;;;;;;60.70;38.00;;;;;;;;;;4375768;32;317717;-88
2023/01/15 05:41:47;;;;;;;72.03;42.03;;;;;;;;;;4370690;32;317598;-89
2023/01/15 05:43:54;;;;;;;62.43;38.30;;;;;;;;;;4378814;32;317369;-88
2023/01/15 05:46:21;;;;;;;76.53;45.50;;;;;;;;;;4375957;32;327116;-88
2023/01/15 05:48:49;;;;;;;69.07;43.00;;;;;;;;;;4382616;32;317323;-88
2023/01/15 05:51:19;;;;;;;59.53;33.67;;;;;;;;;;4373071;32;317532;-89
2023/01/15 05:53:49;;;;;;;56.77;30.93;;;;;;;;;;4376611;32;317347;-88
2023/01/15 05:56:17;;;;;;;47.13;27.73;;;;;;;;;;4367490;32;317664;-88
2023/01/15 05:58:44;;;;;;;40.43;24.90;;;;;;;;;;4373681;32;317664;-88
2023/01/15 06:01:11;;;;;;;42.90;24.07;;;;;;;;;;4371768;32;317200;-88
2023/01/15 06:03:40;;;;;;;41.70;27.03;;;;;;;;;;4358706;32;318840;-89
2023/01/15 06:06:11;;;;;;;30.27;19.07;;;;;;;;;;4361964;32;317721;-88
2023/01/15 06:08:38;;;;;;;30.03;17.97;;;;;;;;;;4360645;32;317402;-88
2023/01/15 06:11:07;;;;;;;34.13;21.13;;;;;;;;;;4362582;32;317356;-88
2023/01/15 06:13:34;;;;;;;32.07;21.77;;;;;;;;;;4373661;32;317414;-88
2023/01/15 06:16:01;;;;;;;31.43;21.30;;;;;;;;;;4360886;32;317826;-88
2023/01/15 06:18:28;;;;;;;46.10;21.90;;;;;;;;;;4367609;32;317705;-88
2023/01/15 06:20:55;;;;;;;46.40;21.80;;;;;;;;;;4380503;32;317852;-89
2023/01/15 06:23:22;;;;;;;34.87;22.27;;;;;;;;;;4361118;32;317459;-88
2023/01/15 06:25:50;;;;;;;33.00;23.03;;;;;;;;;;4371708;32;317510;-88
2023/01/15 06:28:18;;;;;;;36.03;25.40;;;;;;;;;;4362044;32;317656;-89
2023/01/15 06:30:45;;;;;;;34.47;22.73;;;;;;;;;;4373164;32;318096;-89
2023/01/15 06:33:12;;;;;;;39.60;25.03;;;;;;;;;;4362489;32;317513;-88
2023/01/15 06:35:43;;;;;;;35.70;24.77;;;;;;;;;;4373322;32;317473;-88
2023/01/15 06:38:10;;;;;;;49.93;26.83;;;;;;;;;;4360366;32;316649;-89
2023/01/15 06:40:37;;;;;;;53.30;29.90;;;;;;;;;;4372001;32;318056;-89
2023/01/15 06:48:46;;;;;;;60.90;34.30;;;;;;;;;;4359571;32;389733;-88
2023/01/15 06:51:17;;;;;;;57.80;33.00;;;;;;;;;;4360607;32;317824;-88
2023/01/15 06:53:46;;;;;;;57.33;34.77;;;;;;;;;;4358021;32;327735;-90
2023/01/15 06:56:14;;;;;;;52.37;33.27;;;;;;;;;;4354841;32;317738;-88
2023/01/15 06:58:41;;;;;;;56.63;33.83;;;;;;;;;;4369670;32;356716;-88
2023/01/15 07:01:14;;;;;;;61.57;38.63;;;;;;;;;;4359426;32;339457;-88
2023/01/15 07:03:41;;;;;;;78.30;47.47;;;;;;;;;;4371717;32;317699;-88
2023/01/15 07:06:10;;;;;;;121.70;63.57;;;;;;;;;;4362977;32;318405;-89
2023/01/15 07:08:37;;;;;;;103.87;59.60;;;;;;;;;;4371699;32;318589;-87
2023/01/15 07:11:16;;;;;;;89.03;51.33;;;;;;;;;;4361113;32;318709;-88
2023/01/15 07:13:44;;;;;;;96.30;57.43;;;;;;;;;;4371424;32;318157;-88
2023/01/15 07:16:27;;;;;;;102.47;62.20;;;;;;;;;;4345347;32;317791;-88
2023/01/15 07:18:55;;;;;;;95.10;58.83;;;;;;;;;;4373352;32;355843;-89
2023/01/15 07:21:23;;;;;;;88.30;54.30;;;;;;;;;;4367363;32;317418;-88
2023/01/15 07:23:50;;;;;;;81.03;53.03;;;;;;;;;;4396419;32;316356;-88
2023/01/15 07:26:17;;;;;;;89.63;55.73;;;;;;;;;;4373163;32;334578;-87
2023/01/15 07:28:46;;;;;;;90.03;55.33;;;;;;;;;;4354567;32;317892;-88
2023/01/15 07:31:30;;;;;;;70.13;46.97;;;;;;;;;;4359226;32;317506;-88
2023/01/15 07:33:58;;;;;;;75.63;48.93;;;;;;;;;;4376833;32;317543;-89
2023/01/15 07:36:25;;;;;;;81.57;51.83;;;;;;;;;;4358241;32;317504;-88
2023/01/15 07:38:52;;;;;;;93.13;54.43;;;;;;;;;;4383407;32;353366;-88
2023/01/15 07:49:48;;;;;;;78.83;48.07;;;;;;;;;;4361106;32;388829;-88
2023/01/15 07:52:19;;;;;;;59.53;39.10;;;;;;;;;;4360670;32;342772;-89
2023/01/15 07:54:48;;;;;;;47.53;32.17;;;;;;;;;;4369866;32;317790;-88
2023/01/15 07:57:17;;;;;;;51.97;31.87;;;;;;;;;;4362311;32;317571;-88
2023/01/15 07:59:45;;;;;;;111.33;63.63;;;;;;;;;;4372109;32;317519;-88
2023/01/15 08:02:13;;;;;;;306.60;173.80;;;;;;;;;;4363487;32;318619;-88
2023/01/15 08:04:40;;;;;;;78.47;47.90;;;;;;;;;;4370637;32;319598;-88
2023/01/15 08:07:08;;;;;;;42.47;29.23;;;;;;;;;;4363270;32;317653;-89
2023/01/15 08:09:36;;;;;;;60.57;40.50;;;;;;;;;;4373839;32;318158;-88
2023/01/15 08:17:42;;;;;;;75.17;45.40;;;;;;;;;;4358784;32;388937;-88
2023/01/15 08:20:12;;;;;;;52.63;35.53;;;;;;;;;;4365050;32;317748;-89
2023/01/15 08:22:39;;;;;;;67.63;40.53;;;;;;;;;;4374640;32;317625;-89
2023/01/15 08:25:07;;;;;;;60.00;31.93;;;;;;;;;;4361782;32;317659;-88
2023/01/15 08:27:34;;;;;;;53.57;33.37;;;;;;;;;;4372474;32;317666;-88
2023/01/15 08:30:09;;;;;;;61.63;38.00;;;;;;;;;;4361337;32;317572;-88
2023/01/15 08:32:36;;;;;;;64.80;42.13;;;;;;;;;;4374872;32;317572;-89
2023/01/15 08:35:13;;;;;;;56.27;34.00;;;;;;;;;;4355080;32;317760;-89
2023/01/15 08:37:41;;;;;;;48.00;28.73;;;;;;;;;;4373900;32;317614;-89
2023/01/15 08:40:13;;;;;;;36.57;23.43;;;;;;;;;;4364894;32;317648;-89
2023/01/15 08:42:40;;;;;;;55.10;34.40;;;;;;;;;;4372626;32;317700;-89
2023/01/15 08:45:09;;;;;;;58.13;33.20;;;;;;;;;;4362776;32;318706;-89
2023/01/15 08:47:36;;;;;;;49.53;32.00;;;;;;;;;;4370475;32;317546;-88
2023/01/15 08:50:06;;;;;;;107.97;60.50;;;;;;;;;;4346412;32;317658;-89
2023/01/15 08:52:35;;;;;;;50.53;33.60;;;;;;;;;;4375927;32;318605;-90
2023/01/15 08:55:02;;;;;;;77.90;40.60;;;;;;;;;;4358220;32;316567;-89
2023/01/15 08:57:28;;;;;;;54.77;31.10;;;;;;;;;;4369740;32;317604;-89
2023/01/15 08:59:56;;;;;;;62.70;31.70;;;;;;;;;;4382003;32;317742;-88
2023/01/15 09:02:23;;;;;;;37.40;19.50;;;;;;;;;;4379674;32;316401;-89
2023/01/15 09:04:53;;;;;;;28.43;18.07;;;;;;;;;;4387919;32;316466;-89
2023/01/15 09:07:20;;;;;;;29.83;19.40;;;;;;;;;;4375827;32;317938;-90
2023/01/15 09:09:49;;;;;;;26.27;16.47;;;;;;;;;;4373605;32;340116;-89
2023/01/15 09:12:18;;;;;;;38.13;22.30;;;;;;;;;;4360152;32;317493;-89
2023/01/15 09:14:45;;;;;;;25.77;15.50;;;;;;;;;;4384650;32;317415;-89
2023/01/15 09:17:12;;;;;;;31.03;15.63;;;;;;;;;;4365304;32;317715;-89
2023/01/15 09:19:39;;;;;;;27.33;16.83;;;;;;;;;;4374575;32;317709;-88
2023/01/15 09:22:06;;;;;;;23.47;13.23;;;;;;;;;;4362158;32;317320;-90
2023/01/15 09:24:34;;;;;;;71.27;28.00;;;;;;;;;;4384077;32;316074;-91
2023/01/15 09:27:02;;;;;;;16.23;10.30;;;;;;;;;;4380190;32;316449;-90
2023/01/15 09:29:29;;;;;;;36.83;16.03;;;;;;;;;;4387567;32;321980;-89
2023/01/15 09:31:56;;;;;;;17.43;10.90;;;;;;;;;;4384009;32;316264;-89
2023/01/15 09:34:23;;;;;;;21.20;13.37;;;;;;;;;;4385823;32;317577;-88
2023/01/15 09:36:50;;;;;;;24.37;13.43;;;;;;;;;;4379428;32;317985;-90
2023/01/15 09:39:17;;;;;;;20.30;12.97;;;;;;;;;;4365575;32;318055;-89
2023/01/15 09:42:08;;;;;;;29.17;13.57;;;;;;;;;;4377557;32;317933;-89
2023/01/15 09:44:49;;;;;;;77.33;30.53;;;;;;;;;;4369218;32;416996;-89
2023/01/15 09:47:23;;;;;;;20.40;12.07;;;;;;;;;;4365999;32;316549;-88
2023/01/15 09:50:06;;;;;;;61.57;25.80;;;;;;;;;;4387129;32;316136;-89
2023/01/15 09:52:57;;;;;;;84.90;34.67;;;;;;;;;;4375721;32;416858;-88
2023/01/15 09:55:32;;;;;;;17.40;12.93;;;;;;;;;;4379163;32;316582;-89
2023/01/15 09:58:03;;;;;;;15.90;10.90;;;;;;;;;;4390218;32;316140;-89
2023/01/15 10:00:38;;;;;;;64.03;27.57;;;;;;;;;;4369622;32;418417;-88
2023/01/15 10:03:11;;;;;;;21.00;13.90;;;;;;;;;;4367862;32;357026;-89
2023/01/15 10:05:44;;;;;;;22.90;12.90;;;;;;;;;;4375206;32;317584;-88
2023/01/15 10:08:15;;;;;;;19.43;11.27;;;;;;;;;;4369849;32;317607;-88
2023/01/15 10:10:46;;;;;;;51.33;21.37;;;;;;;;;;4382434;32;316258;-89
2023/01/15 10:13:38;;;;;;;19.73;12.90;;;;;;;;;;4363217;32;317494;-89
2023/01/15 10:16:08;;;;;;;20.47;10.93;;;;;;;;;;4379249;32;318564;-88
2023/01/15 10:18:36;;;;;;;19.47;12.10;;;;;;;;;;4374377;32;318568;-89
2023/01/15 10:21:25;;;;;;;28.07;16.73;;;;;;;;;;4369134;32;318652;-89
2023/01/15 10:24:02;;;;;;;26.80;14.17;;;;;;;;;;4374928;32;317775;-89
2023/01/15 10:26:36;;;;;;;22.10;13.70;;;;;;;;;;4345812;32;422397;-88
2023/01/15 10:29:11;;;;;;;37.93;24.27;;;;;;;;;;4358150;32;318523;-88
2023/01/15 10:31:50;;;;;;;25.90;15.83;;;;;;;;;;4372265;32;318659;-89
2023/01/15 10:34:40;;;;;;;29.60;15.77;;;;;;;;;;4361373;32;318760;-89
2023/01/15 10:37:12;;;;;;;25.67;14.63;;;;;;;;;;4364153;32;319084;-88
2023/01/15 10:39:48;;;;;;;20.30;10.90;;;;;;;;;;4376069;32;318506;-88
2023/01/15 10:42:30;;;;;;;20.77;13.67;;;;;;;;;;4363626;32;318436;-88
2023/01/15 10:45:04;;;;;;;52.87;25.07;;;;;;;;;;4378315;32;318637;-89
2023/01/15 10:47:38;;;;;;;41.03;20.73;;;;;;;;;;4357086;32;422259;-88
2023/01/15 10:50:18;;;;;;;24.03;14.07;;;;;;;;;;4378688;32;318075;-89
2023/01/15 10:52:49;;;;;;;25.23;14.77;;;;;;;;;;4380116;32;318107;-90
2023/01/15 10:55:21;;;;;;;19.17;14.27;;;;;;;;;;4350023;32;318624;-90
2023/01/15 10:57:55;;;;;;;21.37;13.87;;;;;;;;;;4368784;32;318503;-88
2023/01/15 11:00:23;;;;;;;23.67;14.27;;;;;;;;;;4369095;32;318498;-89
2023/01/15 11:03:00;;;;;;;19.03;12.83;;;;;;;;;;4374295;32;318556;-89
2023/01/15 11:05:28;;;;;;;20.83;15.27;;;;;;;;;;4358604;32;418435;-89
2023/01/15 11:07:56;;;;;;;20.67;13.90;;;;;;;;;;4367206;32;318585;-90
2023/01/15 11:10:23;;;;;;;19.47;14.13;;;;;;;;;;4367377;32;318604;-88
2023/01/15 11:21:17;;;;;;;22.23;15.90;;;;;;;;;;4361502;32;318511;-89
2023/01/15 11:23:45;;;;;;;21.40;15.33;;;;;;;;;;4372415;32;318817;-89
2023/01/15 11:26:19;;;;;;;18.57;14.77;;;;;;;;;;4361071;32;318646;-89
2023/01/15 11:28:47;;;;;;;17.37;13.53;;;;;;;;;;4364796;32;318899;-88
2023/01/15 11:31:14;;;;;;;32.77;16.40;;;;;;;;;;4364334;32;318366;-88
2023/01/15 11:33:58;;;;;;;58.57;27.87;;;;;;;;;;4372354;32;318746;-89
2023/01/15 11:36:28;;;;;;;37.23;21.37;;;;;;;;;;4364220;32;318455;-88
2023/01/15 11:38:55;;;;;;;28.60;16.80;;;;;;;;;;4374651;32;318538;-89
2023/01/15 11:50:42;;;;;;;24.80;16.30;;;;;;;;;;4364427;32;318910;-89
2023/01/15 11:52:39;;;;;;;20.47;13.73;;;;;;;;;;4362050;32;389742;-88
2023/01/15 11:55:11;;;;;;;36.60;20.97;;;;;;;;;;4363024;32;318360;-88
2023/01/15 11:57:39;;;;;;;28.43;18.23;;;;;;;;;;4372800;32;318408;-88
2023/01/15 12:00:08;;;;;;;24.87;16.33;;;;;;;;;;4363860;32;318562;-89
2023/01/15 12:02:39;;;;;;;18.97;14.10;;;;;;;;;;4374073;32;318722;-88
2023/01/15 12:05:17;;;;;;;30.50;21.10;;;;;;;;;;4365436;32;319023;-89
2023/01/15 12:07:45;;;;;;;44.27;28.40;;;;;;;;;;4368230;32;318462;-88
2023/01/15 12:11:02;;;;;;;49.63;32.53;;;;;;;;;;4371298;32;359749;-87
2023/01/15 12:13:20;;;;;;;41.67;26.70;;;;;;;;;;4379788;32;318012;-89
2023/01/15 12:15:54;;;;;;;27.33;18.70;;;;;;;;;;4389855;32;317123;-88
2023/01/15 12:18:47;;;;;;;44.93;37.53;;;;;;;;;;4367083;32;318398;-89
2023/01/15 12:21:42;;;;;;;38.57;23.53;;;;;;;;;;4356338;32;318889;-88
2023/01/15 12:24:27;;;;;;;60.03;37.70;;;;;;;;;;4357253;32;318637;-88
2023/01/15 12:27:10;;;;;;;46.67;33.93;;;;;;;;;;4377248;32;318749;-88
2023/01/15 12:29:43;;;;;;;20.67;14.23;;;;;;;;;;4367381;32;421991;-88
2023/01/15 12:32:14;;;;;;;20.90;13.87;;;;;;;;;;4369115;32;318521;-87
2023/01/15 12:34:49;;;;;;;23.67;14.07;;;;;;;;;;4383288;32;318259;-87
2023/01/15 12:37:23;;;;;;;23.20;11.77;;;;;;;;;;4370185;32;318408;-87
2023/01/15 12:39:54;;;;;;;17.50;11.73;;;;;;;;;;4383435;32;319653;-87
2023/01/15 12:45:12;;;;;;;19.83;11.13;;;;;;;;;;4360907;32;319254;-87
2023/01/15 12:47:45;;;;;;;14.97;10.83;;;;;;;;;;4372807;32;318583;-88
2023/01/15 12:50:25;;;;;;;16.30;11.63;;;;;;;;;;4368750;32;318745;-88
2023/01/15 12:53:01;;;;;;;19.23;12.40;;;;;;;;;;4371908;32;318608;-90
2023/01/15 12:55:31;;;;;;;16.67;12.00;;;;;;;;;;4361916;32;419517;-88
2023/01/15 12:58:01;;;;;;;18.60;11.80;;;;;;;;;;4374254;32;318893;-88
2023/01/15 13:00:33;;;;;;;19.67;12.07;;;;;;;;;;4360496;32;417925;-88
2023/01/15 13:03:17;;;;;;;12.80;10.00;;;;;;;;;;4374490;32;318742;-89
2023/01/15 13:05:49;;;;;;;18.37;12.87;;;;;;;;;;4359933;32;419296;-88
2023/01/15 13:08:24;;;;;;;32.10;20.13;;;;;;;;;;4368334;32;318363;-88
2023/01/15 13:10:53;;;;;;;21.80;11.83;;;;;;;;;;4373085;32;319282;-88
2023/01/15 13:13:24;;;;;;;22.73;15.90;;;;;;;;;;4364269;32;318553;-88
2023/01/15 13:16:08;;;;;;;11.47;8.20;;;;;;;;;;4372987;32;318436;-88
2023/01/15 13:18:46;;;;;;;16.80;10.17;;;;;;;;;;4361055;32;417884;-88
2023/01/15 13:21:16;;;;;;;18.53;12.03;;;;;;;;;;4362614;32;318521;-88
2023/01/15 13:24:07;;;;;;;13.63;7.13;;;;;;;;;;4372795;32;318666;-88
2023/01/15 13:27:04;;;;;;;19.27;9.63;;;;;;;;;;4360849;32;418240;-88
2023/01/15 13:29:43;;;;;;;21.20;16.77;;;;;;;;;;4355149;32;418686;-88
2023/01/15 13:32:18;;;;;;;15.53;9.00;;;;;;;;;;4371150;32;318440;-88
2023/01/15 13:34:49;;;;;;;14.10;11.17;;;;;;;;;;4373834;32;317878;-88
2023/01/15 13:37:24;;;;;;;62.07;41.23;;;;;;;;;;4362860;32;319201;-88
2023/01/15 13:39:58;;;;;;;131.07;90.93;;;;;;;;;;4373599;32;318721;-88
2023/01/15 13:45:27;;;;;;;33.03;21.60;;;;;;;;;;4360493;32;319267;-89
2023/01/15 13:48:00;;;;;;;19.17;14.03;;;;;;;;;;4373489;32;318720;-88
2023/01/15 13:50:31;;;;;;;19.80;13.90;;;;;;;;;;4352572;32;420927;-90
2023/01/15 13:53:05;;;;;;;30.50;18.97;;;;;;;;;;4381000;32;318736;-89
2023/01/15 13:55:36;;;;;;;32.57;20.77;;;;;;;;;;4360579;32;419469;-90
2023/01/15 13:58:16;;;;;;;34.47;18.50;;;;;;;;;;4362002;32;372019;-87
2023/01/15 14:00:43;;;;;;;24.03;16.87;;;;;;;;;;4372807;32;318653;-87
2023/01/15 14:03:25;;;;;;;26.53;16.70;;;;;;;;;;4362155;32;319236;-88
2023/01/15 14:05:54;;;;;;;29.87;20.13;;;;;;;;;;4372116;32;318642;-87
2023/01/15 14:08:26;;;;;;;32.00;19.80;;;;;;;;;;4361888;32;334130;-90
2023/01/15 14:10:56;;;;;;;40.07;21.70;;;;;;;;;;4372039;32;318857;-88
2023/01/15 14:13:50;;;;;;;33.30;23.33;;;;;;;;;;4356630;32;318425;-88
2023/01/15 14:16:43;;;;;;;35.60;23.63;;;;;;;;;;4362135;32;318450;-88
2023/01/15 14:19:40;;;;;;;34.63;20.57;;;;;;;;;;4362113;32;318893;-88
2023/01/15 14:22:27;;;;;;;22.23;15.00;;;;;;;;;;4361958;32;318376;-87
2023/01/15 14:25:20;;;;;;;40.27;18.10;;;;;;;;;;4375961;32;318601;-88
2023/01/15 14:28:01;;;;;;;34.10;19.47;;;;;;;;;;4359840;32;391191;-89
2023/01/15 14:30:58;;;;;;;44.90;23.03;;;;;;;;;;4360235;32;419312;-89
2023/01/15 14:33:35;;;;;;;52.17;30.77;;;;;;;;;;4357770;32;318554;-88
2023/01/15 14:36:10;;;;;;;47.43;32.33;;;;;;;;;;4361212;32;318669;-89
2023/01/15 14:38:45;;;;;;;49.13;30.63;;;;;;;;;;4372800;32;318638;-89
2023/01/15 14:41:13;;;;;;;52.20;29.30;;;;;;;;;;4360496;32;318520;-89
2023/01/15 14:43:48;;;;;;;52.70;32.43;;;;;;;;;;4372120;32;318701;-89
2023/01/15 14:46:22;;;;;;;49.67;29.53;;;;;;;;;;4359614;32;353972;-89
2023/01/15 14:48:50;;;;;;;41.73;22.67;;;;;;;;;;4370770;32;318465;-90
2023/01/15 14:51:23;;;;;;;53.03;32.33;;;;;;;;;;4360742;32;318585;-91
2023/01/15 14:53:54;;;;;;;60.83;37.20;;;;;;;;;;4371520;32;324740;-89
2023/01/15 14:56:25;;;;;;;56.33;38.00;;;;;;;;;;4359682;32;318796;-91
2023/01/15 14:59:02;;;;;;;63.80;42.63;;;;;;;;;;4371701;32;318393;-92
2023/01/15 15:01:44;;;;;;;66.63;41.30;;;;;;;;;;4351824;32;417871;-91
2023/01/15 15:04:22;;;;;;;54.27;33.73;;;;;;;;;;4353478;32;319031;-92
2023/01/15 15:06:54;;;;;;;48.93;32.23;;;;;;;;;;4380581;32;338115;-93
2023/01/15 15:09:29;;;;;;;47.03;31.60;;;;;;;;;;4362938;32;318512;-92
2023/01/15 15:12:21;;;;;;;67.30;38.53;;;;;;;;;;4371540;32;318268;-91
2023/01/15 15:14:59;;;;;;;81.87;43.57;;;;;;;;;;4351263;32;419416;-90
2023/01/15 15:17:44;;;;;;;50.07;29.80;;;;;;;;;;4367558;32;318568;-90
2023/01/15 15:20:22;;;;;;;52.57;29.67;;;;;;;;;;4367597;32;318587;-90
2023/01/15 15:22:55;;;;;;;112.53;61.03;;;;;;;;;;4373768;32;318599;-90
2023/01/15 15:25:29;;;;;;;72.30;43.40;;;;;;;;;;4363024;32;319602;-92